Gunnison Bend Reservoir




Date Hourly Average Reservoir Capacity (AF) Canal Flow (cfs) Battery Voltage (V) Reservoir Height (ft) Gate Height 1 (ft) Gate Height 2 (ft)
09/01/2018 2,839 42.04 13.23 10.10 0.11 0.86
09/02/2018 2,821 39.37 13.25 10.07 0.11 0.78
09/03/2018 2,870 24.54 13.23 10.15 0.11 0.46
09/04/2018 2,870 11.58 13.20 10.15 0.11 0.30
09/05/2018 2,833 10.37 13.19 10.09 0.11 0.26
09/06/2018 2,784 10.23 13.14 10.01 0.11 0.26
09/07/2018 2,706 11.95 13.22 9.87 0.16 0.28
09/08/2018 2,623 25.46 13.18 9.72 0.40 0.30
09/09/2018 2,502 33.63 13.17 9.50 0.56 0.30
09/10/2018 2,386 34.63 13.20 9.29 0.56 0.30
09/11/2018 2,303 24.88 13.20 9.14 0.40 0.30
09/12/2018 2,232 5.06 13.22 9.01 0.10 0.14
09/13/2018 2,192 0.65 13.27 8.93 0.08 0.10
09/14/2018 2,163 0.65 13.30 8.87 0.08 0.10
09/15/2018 2,134 0.65 13.31 8.81 0.08 0.10
09/16/2018 2,091 0.65 13.30 8.72 0.08 0.10
09/17/2018 2,052 16.39 13.25 8.64 0.08 0.38
09/18/2018 1,989 16.22 13.26 8.51 0.08 0.34
09/19/2018 1,898 14.36 13.28 8.32 0.08 0.32
09/20/2018 1,806 3.97 13.28 8.13 0.08 0.14
09/21/2018 1,734 8.67 13.29 7.98 0.08 0.26
09/22/2018 1,656 11.54 13.29 7.79 0.08 0.31
09/23/2018 1,561 13.83 13.28 7.56 0.08 0.37
09/24/2018 1,438 26.52 13.25 7.27 0.09 0.67
09/25/2018 1,319 29.79 13.29 6.98 0.09 0.74
09/26/2018 1,221 29.32 13.32 6.72 0.09 0.75
09/27/2018 1,161 31.26 13.30 6.56 0.09 0.83
09/28/2018 1,129 37.70 13.29 6.47 0.09 1.03
09/29/2018 1,055 42.83 13.26 6.27 0.09 1.20
09/30/2018 1,063 42.60 13.28 6.29 0.09 1.20
Average 20.04
Maximum 42.83
Minimum 0.65
Total Volume (AF) 1,192.46